首页
METAR-TAF:

METAR-TAF

机场 :

西爾維奧·佩蒂羅西國際機場

亞松森, 巴拉圭

纬度: 25-16S, 经度: 057-38W, 海拔: 101米

当前天气观测

该预报发布于46分钟前的04:00 UTC
风速3节,风向西南
温度 12°C
湿度 94%
气压 1027 hPa
能见度10公里或以上
阴天层高于1500英尺

METAR: SGAS 150400Z 23003KT 9999 OVC015 12/11 Q1027

时间: 00:46 (04:46 UTC)

预报

该预报发布于6小时和12分钟前的22:34 UTC
预报有效从15日的 00点(UTC)到 16日的 00点(UTC)
风速4节,风向南转南东
能见度10公里或以上
阴天层高于2000英尺
几率 30%
从 15日的 08点(UTC)到 15日的 11点(UTC)
风速6节,风向东南
能见度10公里或以上
阴天层高于1500英尺
多云层高于2000英尺
轻雾,

TAF: SGAS 142234Z 1500/1600 16004KT 9999 OVC020 TX16/1519Z TN09/1510Z PROB30 1508/1511 5000 BR OVC015 1513/1516 14006KT 9999 BKN020

超过4000个机场的气象观测和天气预报(METAR&TAF报告)。

可查询的气象台以黄色和红色小点在地图上表示。

将鼠标移到小点上方,可查看气象台名称。

然后点击查看天气观测和预报。

如需切换地图:点击带黑十字的绿色按钮放大地图;点击带横线的绿色按钮缩小地图;或者点击绿色箭头查看邻近地区的地图。


METAR-TAF: